KSLK

Adirondack Regional Airport

Saranac Lake, New York, USA
METAR KSLK 191751Z AUTO 00000KT 10SM BKN031 17/09 A3002 RMK AO2 SLP165 T01720094 10178 20122 58002
Observed Flight Rules
Sep-19 @ 17:51 UTC (58 minutes ago) Visual Flight Rules
Visibility Clouds
10 miles
  • Broken at 3,100' AGL
Temperatures Readings
Current 17°C / 63°F
Dewpoint 9°C / 48°F
Humidity 59%
Altimeter 30.02" Hg
Pressure 1016.5 hPa
Elevation 498
METAR KSLK 191751Z AUTO 00000KT 10SM BKN031 17/09 A3002 RMK AO2 SLP165 T01720094 10178 20122 58002
Observed Flight Rules
Sep-19 @ 17:51 UTC
(58 minutes ago)
VFR
Clouds
  • Broken at 3,100' AGL
Temperature Dewpoint
17°C / 63°F 9°C / 48°F
Humidity Altimeter Pressure
59% 30.02" Hg 1016.5 hPa